sensor_id;sensor_type;location;lat;lon;timestamp;temperature;humidity
28087;DHT22;15392;48.912;8.380;2023-05-14T00:01:36;18.10;50.90
28087;DHT22;15392;48.912;8.380;2023-05-14T00:04:02;18.00;50.90
28087;DHT22;15392;48.912;8.380;2023-05-14T00:06:28;18.00;50.90
28087;DHT22;15392;48.912;8.380;2023-05-14T00:08:54;17.90;50.80
28087;DHT22;15392;48.912;8.380;2023-05-14T00:11:20;18.00;51.00
28087;DHT22;15392;48.912;8.380;2023-05-14T00:13:46;17.90;51.10
28087;DHT22;15392;48.912;8.380;2023-05-14T00:16:11;17.90;51.20
28087;DHT22;15392;48.912;8.380;2023-05-14T00:18:37;17.90;51.30
28087;DHT22;15392;48.912;8.380;2023-05-14T00:21:03;17.90;51.30
28087;DHT22;15392;48.912;8.380;2023-05-14T00:23:29;17.80;51.30
28087;DHT22;15392;48.912;8.380;2023-05-14T00:25:55;17.80;51.20
28087;DHT22;15392;48.912;8.380;2023-05-14T00:28:21;17.90;51.30
28087;DHT22;15392;48.912;8.380;2023-05-14T00:30:46;17.80;51.20
28087;DHT22;15392;48.912;8.380;2023-05-14T00:33:12;17.80;51.30
28087;DHT22;15392;48.912;8.380;2023-05-14T00:35:38;17.70;51.40
28087;DHT22;15392;48.912;8.380;2023-05-14T00:38:04;17.70;51.50
28087;DHT22;15392;48.912;8.380;2023-05-14T00:40:30;17.70;51.60
28087;DHT22;15392;48.912;8.380;2023-05-14T00:42:56;17.60;51.60
28087;DHT22;15392;48.912;8.380;2023-05-14T00:45:22;17.60;51.80
28087;DHT22;15392;48.912;8.380;2023-05-14T00:47:48;17.60;51.90
28087;DHT22;15392;48.912;8.380;2023-05-14T00:50:15;17.60;52.00
28087;DHT22;15392;48.912;8.380;2023-05-14T00:52:41;17.60;51.90
28087;DHT22;15392;48.912;8.380;2023-05-14T00:55:07;17.60;51.90
28087;DHT22;15392;48.912;8.380;2023-05-14T00:57:34;17.60;52.00
28087;DHT22;15392;48.912;8.380;2023-05-14T01:00:01;17.70;52.10
28087;DHT22;15392;48.912;8.380;2023-05-14T01:02:28;17.70;52.00
28087;DHT22;15392;48.912;8.380;2023-05-14T01:04:54;17.70;52.00
28087;DHT22;15392;48.912;8.380;2023-05-14T01:10:31;17.70;52.30
28087;DHT22;15392;48.912;8.380;2023-05-14T01:13:15;17.70;52.20
28087;DHT22;15392;48.912;8.380;2023-05-14T01:15:46;17.70;52.00
28087;DHT22;15392;48.912;8.380;2023-05-14T01:18:15;17.80;51.90
28087;DHT22;15392;48.912;8.380;2023-05-14T01:20:44;17.80;51.90
28087;DHT22;15392;48.912;8.380;2023-05-14T01:23:10;17.80;51.90
28087;DHT22;15392;48.912;8.380;2023-05-14T01:25:36;17.80;51.90
28087;DHT22;15392;48.912;8.380;2023-05-14T01:28:24;17.80;51.80
28087;DHT22;15392;48.912;8.380;2023-05-14T01:31:03;17.80;52.10
28087;DHT22;15392;48.912;8.380;2023-05-14T01:33:33;17.80;52.30
28087;DHT22;15392;48.912;8.380;2023-05-14T01:36:00;17.80;51.50
28087;DHT22;15392;48.912;8.380;2023-05-14T01:38:27;17.80;51.50
28087;DHT22;15392;48.912;8.380;2023-05-14T01:40:59;17.80;51.60
28087;DHT22;15392;48.912;8.380;2023-05-14T01:43:26;17.80;51.70
28087;DHT22;15392;48.912;8.380;2023-05-14T01:45:52;17.70;51.70
28087;DHT22;15392;48.912;8.380;2023-05-14T01:48:19;17.80;51.80
28087;DHT22;15392;48.912;8.380;2023-05-14T01:50:46;17.80;51.90
28087;DHT22;15392;48.912;8.380;2023-05-14T01:53:11;17.70;51.80
28087;DHT22;15392;48.912;8.380;2023-05-14T01:55:37;17.80;51.80
28087;DHT22;15392;48.912;8.380;2023-05-14T01:58:03;17.80;51.80
28087;DHT22;15392;48.912;8.380;2023-05-14T02:00:29;17.70;51.80
28087;DHT22;15392;48.912;8.380;2023-05-14T02:02:55;17.70;51.80
28087;DHT22;15392;48.912;8.380;2023-05-14T02:05:21;17.70;51.70
28087;DHT22;15392;48.912;8.380;2023-05-14T02:07:47;17.70;51.70
28087;DHT22;15392;48.912;8.380;2023-05-14T02:10:12;17.70;51.70
28087;DHT22;15392;48.912;8.380;2023-05-14T02:12:38;17.70;51.80
28087;DHT22;15392;48.912;8.380;2023-05-14T02:15:04;17.70;51.70
28087;DHT22;15392;48.912;8.380;2023-05-14T02:17:30;17.70;51.70
28087;DHT22;15392;48.912;8.380;2023-05-14T02:19:56;17.70;51.70
28087;DHT22;15392;48.912;8.380;2023-05-14T02:22:22;17.70;51.70
28087;DHT22;15392;48.912;8.380;2023-05-14T02:24:48;17.70;51.60
28087;DHT22;15392;48.912;8.380;2023-05-14T02:27:15;17.60;51.60
28087;DHT22;15392;48.912;8.380;2023-05-14T02:29:41;17.60;51.50
28087;DHT22;15392;48.912;8.380;2023-05-14T02:32:07;17.60;51.40
28087;DHT22;15392;48.912;8.380;2023-05-14T02:34:33;17.50;51.40
28087;DHT22;15392;48.912;8.380;2023-05-14T02:36:59;17.50;51.50
28087;DHT22;15392;48.912;8.380;2023-05-14T02:39:25;17.50;51.60
28087;DHT22;15392;48.912;8.380;2023-05-14T02:41:50;17.40;51.70
28087;DHT22;15392;48.912;8.380;2023-05-14T02:44:16;17.40;51.80
28087;DHT22;15392;48.912;8.380;2023-05-14T02:46:42;17.30;51.80
28087;DHT22;15392;48.912;8.380;2023-05-14T02:49:08;17.40;52.00
28087;DHT22;15392;48.912;8.380;2023-05-14T02:51:33;17.40;52.00
28087;DHT22;15392;48.912;8.380;2023-05-14T02:53:59;17.40;52.10
28087;DHT22;15392;48.912;8.380;2023-05-14T02:56:25;17.40;52.10
28087;DHT22;15392;48.912;8.380;2023-05-14T02:58:51;17.40;52.10
28087;DHT22;15392;48.912;8.380;2023-05-14T03:01:17;17.40;52.00
28087;DHT22;15392;48.912;8.380;2023-05-14T03:03:43;17.30;52.00
28087;DHT22;15392;48.912;8.380;2023-05-14T03:06:09;17.30;52.00
28087;DHT22;15392;48.912;8.380;2023-05-14T03:08:35;17.30;52.00
28087;DHT22;15392;48.912;8.380;2023-05-14T03:11:01;17.40;52.00
28087;DHT22;15392;48.912;8.380;2023-05-14T03:13:27;17.30;52.00
28087;DHT22;15392;48.912;8.380;2023-05-14T03:15:52;17.40;52.00
28087;DHT22;15392;48.912;8.380;2023-05-14T03:18:21;17.30;51.90
28087;DHT22;15392;48.912;8.380;2023-05-14T03:20:47;17.40;51.90
28087;DHT22;15392;48.912;8.380;2023-05-14T03:23:13;17.30;51.90
28087;DHT22;15392;48.912;8.380;2023-05-14T03:25:39;17.40;51.90
28087;DHT22;15392;48.912;8.380;2023-05-14T03:28:05;17.30;51.90
28087;DHT22;15392;48.912;8.380;2023-05-14T03:30:31;17.30;51.90
28087;DHT22;15392;48.912;8.380;2023-05-14T03:32:57;17.30;51.90
28087;DHT22;15392;48.912;8.380;2023-05-14T03:35:23;17.40;51.90
28087;DHT22;15392;48.912;8.380;2023-05-14T03:37:49;17.30;51.90
28087;DHT22;15392;48.912;8.380;2023-05-14T03:40:17;17.30;51.90
28087;DHT22;15392;48.912;8.380;2023-05-14T03:42:43;17.30;51.80
28087;DHT22;15392;48.912;8.380;2023-05-14T03:45:09;17.30;51.80
28087;DHT22;15392;48.912;8.380;2023-05-14T03:47:35;17.30;51.80
28087;DHT22;15392;48.912;8.380;2023-05-14T03:50:00;17.30;51.80
28087;DHT22;15392;48.912;8.380;2023-05-14T03:52:26;17.30;51.80
28087;DHT22;15392;48.912;8.380;2023-05-14T03:54:52;17.30;51.80
28087;DHT22;15392;48.912;8.380;2023-05-14T03:57:18;17.40;51.80
28087;DHT22;15392;48.912;8.380;2023-05-14T03:59:43;17.30;51.80
28087;DHT22;15392;48.912;8.380;2023-05-14T04:02:09;17.40;51.90
28087;DHT22;15392;48.912;8.380;2023-05-14T04:04:35;17.30;52.40
28087;DHT22;15392;48.912;8.380;2023-05-14T04:07:01;17.40;51.80
28087;DHT22;15392;48.912;8.380;2023-05-14T04:09:26;17.30;51.80
28087;DHT22;15392;48.912;8.380;2023-05-14T04:11:52;17.30;51.90
28087;DHT22;15392;48.912;8.380;2023-05-14T04:14:18;17.30;51.80
28087;DHT22;15392;48.912;8.380;2023-05-14T04:16:43;17.30;51.80
28087;DHT22;15392;48.912;8.380;2023-05-14T04:19:09;17.30;51.70
28087;DHT22;15392;48.912;8.380;2023-05-14T04:21:35;17.30;51.70
28087;DHT22;15392;48.912;8.380;2023-05-14T04:24:00;17.30;51.70
28087;DHT22;15392;48.912;8.380;2023-05-14T04:26:26;17.30;51.70
28087;DHT22;15392;48.912;8.380;2023-05-14T04:28:52;17.30;51.70
28087;DHT22;15392;48.912;8.380;2023-05-14T04:31:18;17.20;51.60
28087;DHT22;15392;48.912;8.380;2023-05-14T04:33:44;17.20;52.30
28087;DHT22;15392;48.912;8.380;2023-05-14T04:36:09;17.20;51.70
28087;DHT22;15392;48.912;8.380;2023-05-14T04:38:35;17.20;51.70
28087;DHT22;15392;48.912;8.380;2023-05-14T04:41:01;17.20;51.70
28087;DHT22;15392;48.912;8.380;2023-05-14T04:43:27;17.20;51.70
28087;DHT22;15392;48.912;8.380;2023-05-14T04:45:52;17.20;51.70
28087;DHT22;15392;48.912;8.380;2023-05-14T04:48:18;17.20;51.80
28087;DHT22;15392;48.912;8.380;2023-05-14T04:50:44;17.20;51.90
28087;DHT22;15392;48.912;8.380;2023-05-14T04:53:10;17.20;51.90
28087;DHT22;15392;48.912;8.380;2023-05-14T04:55:36;17.20;51.90
28087;DHT22;15392;48.912;8.380;2023-05-14T04:58:02;17.20;52.00
28087;DHT22;15392;48.912;8.380;2023-05-14T05:00:28;17.20;51.90
28087;DHT22;15392;48.912;8.380;2023-05-14T05:02:54;17.20;51.90
28087;DHT22;15392;48.912;8.380;2023-05-14T05:05:22;17.10;52.50
28087;DHT22;15392;48.912;8.380;2023-05-14T05:07:48;17.20;51.90
28087;DHT22;15392;48.912;8.380;2023-05-14T05:10:14;17.20;51.90
28087;DHT22;15392;48.912;8.380;2023-05-14T05:12:40;17.20;51.90
28087;DHT22;15392;48.912;8.380;2023-05-14T05:15:06;17.20;51.80
28087;DHT22;15392;48.912;8.380;2023-05-14T05:17:34;17.20;51.80
28087;DHT22;15392;48.912;8.380;2023-05-14T05:20:00;17.20;51.80
28087;DHT22;15392;48.912;8.380;2023-05-14T05:22:26;17.20;51.80
28087;DHT22;15392;48.912;8.380;2023-05-14T05:24:51;17.20;51.80
28087;DHT22;15392;48.912;8.380;2023-05-14T05:27:17;17.20;51.90
28087;DHT22;15392;48.912;8.380;2023-05-14T05:29:45;17.20;51.90
28087;DHT22;15392;48.912;8.380;2023-05-14T05:32:11;17.30;51.90
28087;DHT22;15392;48.912;8.380;2023-05-14T05:34:36;17.30;51.90
28087;DHT22;15392;48.912;8.380;2023-05-14T05:37:02;17.20;51.90
28087;DHT22;15392;48.912;8.380;2023-05-14T05:39:30;17.30;52.00
28087;DHT22;15392;48.912;8.380;2023-05-14T05:41:59;17.30;52.00
28087;DHT22;15392;48.912;8.380;2023-05-14T05:44:26;17.30;52.00
28087;DHT22;15392;48.912;8.380;2023-05-14T05:46:52;17.30;52.00
28087;DHT22;15392;48.912;8.380;2023-05-14T05:49:21;17.30;52.10
28087;DHT22;15392;48.912;8.380;2023-05-14T05:51:47;17.40;52.10
28087;DHT22;15392;48.912;8.380;2023-05-14T05:54:12;17.40;52.00
28087;DHT22;15392;48.912;8.380;2023-05-14T05:56:38;17.40;52.00
28087;DHT22;15392;48.912;8.380;2023-05-14T05:59:04;17.40;52.00
28087;DHT22;15392;48.912;8.380;2023-05-14T06:01:30;17.40;52.00
28087;DHT22;15392;48.912;8.380;2023-05-14T06:03:55;17.50;52.00
28087;DHT22;15392;48.912;8.380;2023-05-14T06:06:21;17.50;52.00
28087;DHT22;15392;48.912;8.380;2023-05-14T06:08:47;17.50;52.00
28087;DHT22;15392;48.912;8.380;2023-05-14T06:11:13;17.50;52.00
28087;DHT22;15392;48.912;8.380;2023-05-14T06:13:39;17.60;52.10
28087;DHT22;15392;48.912;8.380;2023-05-14T06:16:05;17.60;52.00
28087;DHT22;15392;48.912;8.380;2023-05-14T06:18:31;17.70;52.00
28087;DHT22;15392;48.912;8.380;2023-05-14T06:20:57;17.60;51.90
28087;DHT22;15392;48.912;8.380;2023-05-14T06:23:24;17.70;52.00
28087;DHT22;15392;48.912;8.380;2023-05-14T06:25:50;17.60;51.90
28087;DHT22;15392;48.912;8.380;2023-05-14T06:28:16;17.70;52.00
28087;DHT22;15392;48.912;8.380;2023-05-14T06:30:42;17.70;52.00
28087;DHT22;15392;48.912;8.380;2023-05-14T06:33:08;17.80;52.10
28087;DHT22;15392;48.912;8.380;2023-05-14T06:35:34;17.80;52.10
28087;DHT22;15392;48.912;8.380;2023-05-14T06:38:00;17.90;52.10
28087;DHT22;15392;48.912;8.380;2023-05-14T06:40:25;17.90;52.10
28087;DHT22;15392;48.912;8.380;2023-05-14T06:42:51;17.90;52.10
28087;DHT22;15392;48.912;8.380;2023-05-14T06:45:17;18.00;52.10
28087;DHT22;15392;48.912;8.380;2023-05-14T06:47:43;18.10;52.10
28087;DHT22;15392;48.912;8.380;2023-05-14T06:50:09;18.10;52.10
28087;DHT22;15392;48.912;8.380;2023-05-14T06:52:35;18.20;52.00
28087;DHT22;15392;48.912;8.380;2023-05-14T06:55:01;18.30;52.00
28087;DHT22;15392;48.912;8.380;2023-05-14T06:57:27;18.30;51.90
28087;DHT22;15392;48.912;8.380;2023-05-14T06:59:53;18.40;51.90
28087;DHT22;15392;48.912;8.380;2023-05-14T07:02:18;18.40;51.90
28087;DHT22;15392;48.912;8.380;2023-05-14T07:04:45;18.50;51.80
28087;DHT22;15392;48.912;8.380;2023-05-14T07:07:10;18.60;51.80
28087;DHT22;15392;48.912;8.380;2023-05-14T07:09:40;18.70;51.70
28087;DHT22;15392;48.912;8.380;2023-05-14T07:12:07;18.70;51.70
28087;DHT22;15392;48.912;8.380;2023-05-14T07:14:32;18.80;51.60
28087;DHT22;15392;48.912;8.380;2023-05-14T07:16:59;18.80;51.50
28087;DHT22;15392;48.912;8.380;2023-05-14T07:19:25;18.90;51.50
28087;DHT22;15392;48.912;8.380;2023-05-14T07:21:53;18.90;51.40
28087;DHT22;15392;48.912;8.380;2023-05-14T07:24:19;19.00;51.40
28087;DHT22;15392;48.912;8.380;2023-05-14T07:26:44;19.10;51.40
28087;DHT22;15392;48.912;8.380;2023-05-14T07:29:10;19.10;51.20
28087;DHT22;15392;48.912;8.380;2023-05-14T07:31:36;19.20;51.20
28087;DHT22;15392;48.912;8.380;2023-05-14T07:34:02;19.30;51.20
28087;DHT22;15392;48.912;8.380;2023-05-14T07:36:28;19.30;51.10
28087;DHT22;15392;48.912;8.380;2023-05-14T07:38:54;19.40;51.00
28087;DHT22;15392;48.912;8.380;2023-05-14T07:41:20;19.40;51.00
28087;DHT22;15392;48.912;8.380;2023-05-14T07:43:45;19.50;51.00
28087;DHT22;15392;48.912;8.380;2023-05-14T07:46:11;19.60;51.00
28087;DHT22;15392;48.912;8.380;2023-05-14T07:48:37;19.70;50.90
28087;DHT22;15392;48.912;8.380;2023-05-14T07:51:03;19.70;50.80
28087;DHT22;15392;48.912;8.380;2023-05-14T07:53:29;19.80;50.70
28087;DHT22;15392;48.912;8.380;2023-05-14T07:55:54;19.90;50.70
28087;DHT22;15392;48.912;8.380;2023-05-14T07:58:20;19.90;50.70
28087;DHT22;15392;48.912;8.380;2023-05-14T08:00:46;20.00;50.60
28087;DHT22;15392;48.912;8.380;2023-05-14T08:03:12;20.00;50.60
28087;DHT22;15392;48.912;8.380;2023-05-14T08:05:38;20.10;50.60
28087;DHT22;15392;48.912;8.380;2023-05-14T08:08:03;20.20;50.50
28087;DHT22;15392;48.912;8.380;2023-05-14T08:10:29;20.20;50.40
28087;DHT22;15392;48.912;8.380;2023-05-14T08:12:55;20.30;50.30
28087;DHT22;15392;48.912;8.380;2023-05-14T08:15:21;20.40;50.30
28087;DHT22;15392;48.912;8.380;2023-05-14T08:17:47;20.40;50.80
28087;DHT22;15392;48.912;8.380;2023-05-14T08:20:13;20.50;50.30
28087;DHT22;15392;48.912;8.380;2023-05-14T08:22:39;20.60;50.20
28087;DHT22;15392;48.912;8.380;2023-05-14T08:25:05;20.70;50.20
28087;DHT22;15392;48.912;8.380;2023-05-14T08:27:32;20.70;50.10
28087;DHT22;15392;48.912;8.380;2023-05-14T08:29:58;20.80;50.00
28087;DHT22;15392;48.912;8.380;2023-05-14T08:32:23;20.90;50.00
28087;DHT22;15392;48.912;8.380;2023-05-14T08:34:49;21.00;50.10
28087;DHT22;15392;48.912;8.380;2023-05-14T08:37:15;21.10;50.00
28087;DHT22;15392;48.912;8.380;2023-05-14T08:39:41;21.20;50.50
28087;DHT22;15392;48.912;8.380;2023-05-14T08:42:11;21.30;49.70
28087;DHT22;15392;48.912;8.380;2023-05-14T08:44:50;21.30;49.60
28087;DHT22;15392;48.912;8.380;2023-05-14T08:47:21;21.50;49.60
28087;DHT22;15392;48.912;8.380;2023-05-14T08:49:56;21.60;49.60
28087;DHT22;15392;48.912;8.380;2023-05-14T08:52:30;21.70;49.40
28087;DHT22;15392;48.912;8.380;2023-05-14T08:54:59;21.80;49.40
28087;DHT22;15392;48.912;8.380;2023-05-14T08:57:29;21.90;49.20
28087;DHT22;15392;48.912;8.380;2023-05-14T08:59:57;22.00;49.20
28087;DHT22;15392;48.912;8.380;2023-05-14T09:02:33;22.10;49.10
28087;DHT22;15392;48.912;8.380;2023-05-14T09:05:01;22.20;48.80
28087;DHT22;15392;48.912;8.380;2023-05-14T09:07:28;22.20;48.90
28087;DHT22;15392;48.912;8.380;2023-05-14T09:09:54;22.30;49.10
28087;DHT22;15392;48.912;8.380;2023-05-14T09:12:20;22.30;48.80
28087;DHT22;15392;48.912;8.380;2023-05-14T09:14:48;22.50;48.90
28087;DHT22;15392;48.912;8.380;2023-05-14T09:17:14;22.50;48.60
28087;DHT22;15392;48.912;8.380;2023-05-14T09:19:42;22.60;48.70
28087;DHT22;15392;48.912;8.380;2023-05-14T09:22:10;22.70;48.60
28087;DHT22;15392;48.912;8.380;2023-05-14T09:24:37;22.80;48.40
28087;DHT22;15392;48.912;8.380;2023-05-14T09:27:04;22.80;48.20
28087;DHT22;15392;48.912;8.380;2023-05-14T09:29:31;22.90;48.10
28087;DHT22;15392;48.912;8.380;2023-05-14T09:31:58;23.00;48.00
28087;DHT22;15392;48.912;8.380;2023-05-14T09:34:28;23.00;47.90
28087;DHT22;15392;48.912;8.380;2023-05-14T09:37:03;23.00;47.60
28087;DHT22;15392;48.912;8.380;2023-05-14T09:39:33;23.10;47.10
28087;DHT22;15392;48.912;8.380;2023-05-14T09:42:03;23.10;47.80
28087;DHT22;15392;48.912;8.380;2023-05-14T09:44:29;23.10;47.40
28087;DHT22;15392;48.912;8.380;2023-05-14T09:46:56;23.10;47.40
28087;DHT22;15392;48.912;8.380;2023-05-14T09:49:22;23.10;47.30
28087;DHT22;15392;48.912;8.380;2023-05-14T09:51:48;23.10;47.30
28087;DHT22;15392;48.912;8.380;2023-05-14T09:54:14;23.10;47.30
28087;DHT22;15392;48.912;8.380;2023-05-14T09:56:43;23.20;47.50
28087;DHT22;15392;48.912;8.380;2023-05-14T09:59:09;23.20;47.30
28087;DHT22;15392;48.912;8.380;2023-05-14T10:01:36;23.30;47.50
28087;DHT22;15392;48.912;8.380;2023-05-14T10:04:05;23.40;47.60
28087;DHT22;15392;48.912;8.380;2023-05-14T10:06:35;23.50;47.50
28087;DHT22;15392;48.912;8.380;2023-05-14T10:09:04;23.50;47.40
28087;DHT22;15392;48.912;8.380;2023-05-14T10:11:37;23.60;47.50
28087;DHT22;15392;48.912;8.380;2023-05-14T10:14:07;23.80;47.70
28087;DHT22;15392;48.912;8.380;2023-05-14T10:16:58;24.00;47.70
28087;DHT22;15392;48.912;8.380;2023-05-14T10:19:27;24.10;47.50
28087;DHT22;15392;48.912;8.380;2023-05-14T10:22:04;24.20;47.30
28087;DHT22;15392;48.912;8.380;2023-05-14T10:24:37;24.40;47.10
28087;DHT22;15392;48.912;8.380;2023-05-14T10:27:07;24.40;46.90
28087;DHT22;15392;48.912;8.380;2023-05-14T10:29:36;24.50;46.60
28087;DHT22;15392;48.912;8.380;2023-05-14T10:32:07;24.60;46.10
28087;DHT22;15392;48.912;8.380;2023-05-14T10:34:38;24.60;46.00
28087;DHT22;15392;48.912;8.380;2023-05-14T10:37:09;24.50;45.90
28087;DHT22;15392;48.912;8.380;2023-05-14T10:42:21;24.60;46.10
28087;DHT22;15392;48.912;8.380;2023-05-14T10:44:56;24.50;46.30
28087;DHT22;15392;48.912;8.380;2023-05-14T10:47:30;24.50;45.70
28087;DHT22;15392;48.912;8.380;2023-05-14T10:50:01;24.60;45.60
28087;DHT22;15392;48.912;8.380;2023-05-14T10:52:32;24.50;43.70
28087;DHT22;15392;48.912;8.380;2023-05-14T10:55:01;24.50;45.30
28087;DHT22;15392;48.912;8.380;2023-05-14T10:57:38;24.40;45.70
28087;DHT22;15392;48.912;8.380;2023-05-14T11:00:05;24.40;46.50
28087;DHT22;15392;48.912;8.380;2023-05-14T11:02:36;24.40;45.80
28087;DHT22;15392;48.912;8.380;2023-05-14T11:05:13;24.40;45.70
28087;DHT22;15392;48.912;8.380;2023-05-14T11:07:47;24.40;45.80
28087;DHT22;15392;48.912;8.380;2023-05-14T11:10:18;24.50;45.70
28087;DHT22;15392;48.912;8.380;2023-05-14T11:12:49;24.40;46.30
28087;DHT22;15392;48.912;8.380;2023-05-14T11:15:17;24.50;46.30
28087;DHT22;15392;48.912;8.380;2023-05-14T11:17:44;24.50;46.40
28087;DHT22;15392;48.912;8.380;2023-05-14T11:20:11;24.60;46.30
28087;DHT22;15392;48.912;8.380;2023-05-14T11:22:39;24.60;46.40
28087;DHT22;15392;48.912;8.380;2023-05-14T11:25:10;24.70;46.40
28087;DHT22;15392;48.912;8.380;2023-05-14T11:27:40;24.70;46.40
28087;DHT22;15392;48.912;8.380;2023-05-14T11:30:15;24.70;46.20
28087;DHT22;15392;48.912;8.380;2023-05-14T11:32:45;24.80;45.80
28087;DHT22;15392;48.912;8.380;2023-05-14T11:35:13;24.80;46.10
28087;DHT22;15392;48.912;8.380;2023-05-14T11:37:39;24.80;46.30
28087;DHT22;15392;48.912;8.380;2023-05-14T11:40:16;24.80;46.10
28087;DHT22;15392;48.912;8.380;2023-05-14T11:42:42;24.90;45.90
28087;DHT22;15392;48.912;8.380;2023-05-14T11:45:12;24.80;46.10
28087;DHT22;15392;48.912;8.380;2023-05-14T11:47:39;24.80;45.70
28087;DHT22;15392;48.912;8.380;2023-05-14T11:50:06;24.80;45.70
28087;DHT22;15392;48.912;8.380;2023-05-14T11:52:38;24.80;46.20
28087;DHT22;15392;48.912;8.380;2023-05-14T11:55:07;24.80;45.90
28087;DHT22;15392;48.912;8.380;2023-05-14T11:57:35;24.70;46.20
28087;DHT22;15392;48.912;8.380;2023-05-14T12:00:02;24.70;46.20
28087;DHT22;15392;48.912;8.380;2023-05-14T12:02:30;24.80;46.20
28087;DHT22;15392;48.912;8.380;2023-05-14T12:04:56;24.80;46.20
28087;DHT22;15392;48.912;8.380;2023-05-14T12:07:22;24.80;46.30
28087;DHT22;15392;48.912;8.380;2023-05-14T12:09:48;24.80;46.20
28087;DHT22;15392;48.912;8.380;2023-05-14T12:12:17;24.90;46.20
28087;DHT22;15392;48.912;8.380;2023-05-14T12:14:45;24.90;45.90
28087;DHT22;15392;48.912;8.380;2023-05-14T12:17:16;24.90;46.00
28087;DHT22;15392;48.912;8.380;2023-05-14T12:19:44;25.00;45.60
28087;DHT22;15392;48.912;8.380;2023-05-14T12:22:11;25.00;46.00
28087;DHT22;15392;48.912;8.380;2023-05-14T12:24:38;25.00;46.00
28087;DHT22;15392;48.912;8.380;2023-05-14T12:27:08;25.10;46.10
28087;DHT22;15392;48.912;8.380;2023-05-14T12:29:36;25.10;46.00
28087;DHT22;15392;48.912;8.380;2023-05-14T12:32:09;25.10;45.90
28087;DHT22;15392;48.912;8.380;2023-05-14T12:34:36;25.10;45.60
28087;DHT22;15392;48.912;8.380;2023-05-14T12:37:02;25.20;46.10
28087;DHT22;15392;48.912;8.380;2023-05-14T12:39:32;25.20;46.00
28087;DHT22;15392;48.912;8.380;2023-05-14T12:41:59;25.30;45.90
28087;DHT22;15392;48.912;8.380;2023-05-14T12:44:25;25.30;46.10
28087;DHT22;15392;48.912;8.380;2023-05-14T12:46:51;25.40;46.00
28087;DHT22;15392;48.912;8.380;2023-05-14T12:49:16;25.40;46.00
28087;DHT22;15392;48.912;8.380;2023-05-14T12:51:42;25.50;45.80
28087;DHT22;15392;48.912;8.380;2023-05-14T12:54:08;25.60;45.80
28087;DHT22;15392;48.912;8.380;2023-05-14T12:56:37;25.60;45.90
28087;DHT22;15392;48.912;8.380;2023-05-14T12:59:06;25.70;45.50
28087;DHT22;15392;48.912;8.380;2023-05-14T13:01:33;25.70;45.40
28087;DHT22;15392;48.912;8.380;2023-05-14T13:03:59;25.80;45.60
28087;DHT22;15392;48.912;8.380;2023-05-14T13:06:25;25.80;45.50
28087;DHT22;15392;48.912;8.380;2023-05-14T13:08:51;25.80;45.50
28087;DHT22;15392;48.912;8.380;2023-05-14T13:11:17;25.70;45.40
28087;DHT22;15392;48.912;8.380;2023-05-14T13:13:42;25.80;45.30
28087;DHT22;15392;48.912;8.380;2023-05-14T13:16:11;25.80;45.50
28087;DHT22;15392;48.912;8.380;2023-05-14T13:18:42;25.80;44.60
28087;DHT22;15392;48.912;8.380;2023-05-14T13:21:18;25.90;45.40
28087;DHT22;15392;48.912;8.380;2023-05-14T13:23:47;25.90;44.90
28087;DHT22;15392;48.912;8.380;2023-05-14T13:26:15;25.90;45.40
28087;DHT22;15392;48.912;8.380;2023-05-14T13:29:02;26.00;45.20
28087;DHT22;15392;48.912;8.380;2023-05-14T13:31:30;26.00;45.20
28087;DHT22;15392;48.912;8.380;2023-05-14T13:34:03;26.00;45.10
28087;DHT22;15392;48.912;8.380;2023-05-14T13:36:43;26.00;45.30
28087;DHT22;15392;48.912;8.380;2023-05-14T13:39:11;26.00;44.20
28087;DHT22;15392;48.912;8.380;2023-05-14T13:41:38;26.00;45.10
28087;DHT22;15392;48.912;8.380;2023-05-14T13:44:03;26.00;45.60
28087;DHT22;15392;48.912;8.380;2023-05-14T13:46:29;26.00;45.00
28087;DHT22;15392;48.912;8.380;2023-05-14T13:48:55;25.90;44.90
28087;DHT22;15392;48.912;8.380;2023-05-14T13:51:24;25.90;44.80
28087;DHT22;15392;48.912;8.380;2023-05-14T13:53:50;25.90;44.80
28087;DHT22;15392;48.912;8.380;2023-05-14T13:56:15;25.90;44.80
28087;DHT22;15392;48.912;8.380;2023-05-14T13:58:41;25.80;44.80
28087;DHT22;15392;48.912;8.380;2023-05-14T14:01:07;25.70;44.70
28087;DHT22;15392;48.912;8.380;2023-05-14T14:03:33;25.70;44.60
28087;DHT22;15392;48.912;8.380;2023-05-14T14:05:59;25.70;44.70
28087;DHT22;15392;48.912;8.380;2023-05-14T14:08:25;25.70;44.80
28087;DHT22;15392;48.912;8.380;2023-05-14T14:10:51;25.60;44.70
28087;DHT22;15392;48.912;8.380;2023-05-14T14:13:19;25.60;44.80
28087;DHT22;15392;48.912;8.380;2023-05-14T14:15:48;25.60;44.80
28087;DHT22;15392;48.912;8.380;2023-05-14T14:18:14;25.60;44.90
28087;DHT22;15392;48.912;8.380;2023-05-14T14:20:40;25.60;44.70
28087;DHT22;15392;48.912;8.380;2023-05-14T14:23:06;25.60;44.70
28087;DHT22;15392;48.912;8.380;2023-05-14T14:25:32;25.60;44.80
28087;DHT22;15392;48.912;8.380;2023-05-14T14:27:58;25.50;44.70
28087;DHT22;15392;48.912;8.380;2023-05-14T14:30:24;25.50;44.70
28087;DHT22;15392;48.912;8.380;2023-05-14T14:32:50;25.50;44.70
28087;DHT22;15392;48.912;8.380;2023-05-14T14:35:19;25.50;44.70
28087;DHT22;15392;48.912;8.380;2023-05-14T14:37:47;25.50;44.10
28087;DHT22;15392;48.912;8.380;2023-05-14T14:40:18;25.40;44.50
28087;DHT22;15392;48.912;8.380;2023-05-14T14:42:44;25.40;44.50
28087;DHT22;15392;48.912;8.380;2023-05-14T14:45:11;25.40;44.80
28087;DHT22;15392;48.912;8.380;2023-05-14T14:47:37;25.40;44.90
28087;DHT22;15392;48.912;8.380;2023-05-14T14:50:03;25.40;45.00
28087;DHT22;15392;48.912;8.380;2023-05-14T14:52:29;25.40;45.00
28087;DHT22;15392;48.912;8.380;2023-05-14T14:54:55;25.40;45.00
28087;DHT22;15392;48.912;8.380;2023-05-14T14:57:22;25.40;44.90
28087;DHT22;15392;48.912;8.380;2023-05-14T14:59:48;25.40;44.90
28087;DHT22;15392;48.912;8.380;2023-05-14T15:02:14;25.50;45.00
28087;DHT22;15392;48.912;8.380;2023-05-14T15:04:40;25.40;44.90
28087;DHT22;15392;48.912;8.380;2023-05-14T15:07:05;25.40;45.00
28087;DHT22;15392;48.912;8.380;2023-05-14T15:09:31;25.40;45.00
28087;DHT22;15392;48.912;8.380;2023-05-14T15:11:57;25.40;44.80
28087;DHT22;15392;48.912;8.380;2023-05-14T15:14:23;25.30;44.70
28087;DHT22;15392;48.912;8.380;2023-05-14T15:16:49;25.40;44.90
28087;DHT22;15392;48.912;8.380;2023-05-14T15:19:15;25.30;44.70
28087;DHT22;15392;48.912;8.380;2023-05-14T15:21:41;25.30;44.80
28087;DHT22;15392;48.912;8.380;2023-05-14T15:24:10;25.30;44.70
28087;DHT22;15392;48.912;8.380;2023-05-14T15:26:39;25.20;44.40
28087;DHT22;15392;48.912;8.380;2023-05-14T15:29:05;25.20;44.80
28087;DHT22;15392;48.912;8.380;2023-05-14T15:31:31;25.20;45.40
28087;DHT22;15392;48.912;8.380;2023-05-14T15:33:57;25.10;44.80
28087;DHT22;15392;48.912;8.380;2023-05-14T15:36:23;25.10;44.80